首页
METAR-TAF:

METAR-TAF

机场 :

Brookhaven Airport

Shirley, 紐約州, 美国

纬度: 40-49-18N, 经度: 072-52-08W, 海拔: 25米

当前天气观测

该预报发布于1小时和8分钟前的07:56 UTC
静风
温度 19°C
湿度 88%
气压 1018 hPa
能見度: 12.9公里
天空无云

METAR: KHWV 270756Z AUTO 00000KT 8SM CLR 19/17 A3007 RMK AO2 SLP180 T01890172

时间: 05:04 (09:04 UTC)


TAF: 丢失

超过4000个机场的气象观测和天气预报(METAR&TAF报告)。

可查询的气象台以黄色和红色小点在地图上表示。

将鼠标移到小点上方,可查看气象台名称。

然后点击查看天气观测和预报。

如需切换地图:点击带黑十字的绿色按钮放大地图;点击带横线的绿色按钮缩小地图;或者点击绿色箭头查看邻近地区的地图。


METAR-TAF: